<?xml version="1.0" encoding="UTF-8" standalone="no" ?>
<gpx xmlns="http://www.topografix.com/GPX/1/1" xmlns:xsi="http://www.w3.org/2001/XMLSchema-instance" xsi:schemaLocation="http://www.topografix.com/GPX/1/1 http://www.topografix.com/GPX/1/1/gpx.xsd" version="1.1" creator="VisuGPX - https://www.visugpx.com">
  <metadata>
    <name>J1-Beaufor-Thuile - refuge la Coire</name>
  </metadata>
  <trk>
    <name><![CDATA[J1-Beaufor-Thuile - refuge la Coire]]></name>
    <trkseg>
      <trkpt lat="45.68098" lon="6.56147">
        <ele>1063</ele>
      </trkpt>
      <trkpt lat="45.68069" lon="6.56123">
        <ele>1065.1</ele>
      </trkpt>
      <trkpt lat="45.68056" lon="6.56094">
        <ele>1066.4</ele>
      </trkpt>
      <trkpt lat="45.68059" lon="6.56075">
        <ele>1065.5</ele>
      </trkpt>
      <trkpt lat="45.68102" lon="6.56127">
        <ele>1058.1</ele>
      </trkpt>
      <trkpt lat="45.68191" lon="6.56231">
        <ele>1046.4</ele>
      </trkpt>
      <trkpt lat="45.68223" lon="6.56255">
        <ele>1042.5</ele>
      </trkpt>
      <trkpt lat="45.68329" lon="6.56369">
        <ele>1029.5</ele>
      </trkpt>
      <trkpt lat="45.68407" lon="6.56387">
        <ele>1018.8</ele>
      </trkpt>
      <trkpt lat="45.68518" lon="6.56435">
        <ele>1013.4</ele>
      </trkpt>
      <trkpt lat="45.68562" lon="6.56472">
        <ele>1012.5</ele>
      </trkpt>
      <trkpt lat="45.68553" lon="6.56532">
        <ele>1011.6</ele>
      </trkpt>
      <trkpt lat="45.68553" lon="6.56589">
        <ele>1011.2</ele>
      </trkpt>
      <trkpt lat="45.68577" lon="6.56611">
        <ele>1016</ele>
        <time>2022-06-10T07:16:26Z</time>
      </trkpt>
      <trkpt lat="45.68601" lon="6.56616">
        <ele>1015</ele>
        <time>2022-06-10T07:16:32Z</time>
      </trkpt>
      <trkpt lat="45.68646" lon="6.56568">
        <ele>1012</ele>
        <time>2022-06-10T07:16:45Z</time>
      </trkpt>
      <trkpt lat="45.6867" lon="6.56591">
        <ele>1014</ele>
        <time>2022-06-10T07:16:52Z</time>
      </trkpt>
      <trkpt lat="45.6866" lon="6.56769">
        <ele>1028</ele>
        <time>2022-06-10T07:17:21Z</time>
      </trkpt>
      <trkpt lat="45.68646" lon="6.5688">
        <ele>1037</ele>
        <time>2022-06-10T07:17:39Z</time>
      </trkpt>
      <trkpt lat="45.68614" lon="6.56877">
        <ele>1038</ele>
        <time>2022-06-10T07:17:47Z</time>
      </trkpt>
      <trkpt lat="45.6858" lon="6.56889">
        <ele>1041</ele>
        <time>2022-06-10T07:17:55Z</time>
      </trkpt>
      <trkpt lat="45.68541" lon="6.56875">
        <ele>1041</ele>
        <time>2022-06-10T07:18:04Z</time>
      </trkpt>
      <trkpt lat="45.68531" lon="6.56902">
        <ele>1044</ele>
        <time>2022-06-10T07:18:09Z</time>
      </trkpt>
      <trkpt lat="45.68548" lon="6.56927">
        <ele>1046</ele>
        <time>2022-06-10T07:18:15Z</time>
      </trkpt>
      <trkpt lat="45.68551" lon="6.56968">
        <ele>1051</ele>
        <time>2022-06-10T07:18:22Z</time>
      </trkpt>
      <trkpt lat="45.68596" lon="6.56977">
        <ele>1051</ele>
        <time>2022-06-10T07:18:32Z</time>
      </trkpt>
      <trkpt lat="45.68633" lon="6.56994">
        <ele>1052</ele>
        <time>2022-06-10T07:18:41Z</time>
      </trkpt>
      <trkpt lat="45.68636" lon="6.57016">
        <ele>1057</ele>
        <time>2022-06-10T07:18:45Z</time>
      </trkpt>
      <trkpt lat="45.68601" lon="6.57014">
        <ele>1057</ele>
        <time>2022-06-10T07:18:53Z</time>
      </trkpt>
      <trkpt lat="45.68574" lon="6.5703">
        <ele>1061</ele>
        <time>2022-06-10T07:19:00Z</time>
      </trkpt>
      <trkpt lat="45.68504" lon="6.57105">
        <ele>1074</ele>
        <time>2022-06-10T07:19:20Z</time>
      </trkpt>
      <trkpt lat="45.68416" lon="6.57179">
        <ele>1084</ele>
        <time>2022-06-10T07:19:44Z</time>
      </trkpt>
      <trkpt lat="45.68377" lon="6.57208">
        <ele>1093</ele>
        <time>2022-06-10T07:19:55Z</time>
      </trkpt>
      <trkpt lat="45.68323" lon="6.57249">
        <ele>1096</ele>
        <time>2022-06-10T07:20:09Z</time>
      </trkpt>
      <trkpt lat="45.68295" lon="6.57269">
        <ele>1103</ele>
        <time>2022-06-10T07:20:16Z</time>
      </trkpt>
      <trkpt lat="45.68299" lon="6.57283">
        <ele>1105</ele>
        <time>2022-06-10T07:20:19Z</time>
      </trkpt>
      <trkpt lat="45.68354" lon="6.57264">
        <ele>1101</ele>
        <time>2022-06-10T07:20:32Z</time>
      </trkpt>
      <trkpt lat="45.68421" lon="6.57266">
        <ele>1109</ele>
        <time>2022-06-10T07:20:47Z</time>
      </trkpt>
      <trkpt lat="45.68478" lon="6.57233">
        <ele>1105</ele>
        <time>2022-06-10T07:21:02Z</time>
      </trkpt>
      <trkpt lat="45.68503" lon="6.57217">
        <ele>1103</ele>
        <time>2022-06-10T07:21:08Z</time>
      </trkpt>
      <trkpt lat="45.68518" lon="6.57239">
        <ele>1109</ele>
        <time>2022-06-10T07:21:13Z</time>
      </trkpt>
      <trkpt lat="45.68487" lon="6.57263">
        <ele>1114</ele>
        <time>2022-06-10T07:21:21Z</time>
      </trkpt>
      <trkpt lat="45.68443" lon="6.57318">
        <ele>1125</ele>
        <time>2022-06-10T07:21:35Z</time>
      </trkpt>
      <trkpt lat="45.68399" lon="6.57331">
        <ele>1125</ele>
        <time>2022-06-10T07:21:46Z</time>
      </trkpt>
      <trkpt lat="45.68329" lon="6.57357">
        <ele>1125</ele>
        <time>2022-06-10T07:22:02Z</time>
      </trkpt>
      <trkpt lat="45.68301" lon="6.57471">
        <ele>1144</ele>
        <time>2022-06-10T07:22:22Z</time>
      </trkpt>
      <trkpt lat="45.68314" lon="6.57514">
        <ele>1153</ele>
        <time>2022-06-10T07:22:30Z</time>
      </trkpt>
      <trkpt lat="45.68313" lon="6.57586">
        <ele>1161</ele>
        <time>2022-06-10T07:22:42Z</time>
      </trkpt>
      <trkpt lat="45.68284" lon="6.57646">
        <ele>1167</ele>
        <time>2022-06-10T07:22:54Z</time>
      </trkpt>
      <trkpt lat="45.68232" lon="6.57597">
        <ele>1158</ele>
        <time>2022-06-10T07:23:08Z</time>
      </trkpt>
      <trkpt lat="45.68216" lon="6.57562">
        <ele>1155</ele>
        <time>2022-06-10T07:23:15Z</time>
      </trkpt>
      <trkpt lat="45.6815" lon="6.57549">
        <ele>1163</ele>
        <time>2022-06-10T07:23:30Z</time>
      </trkpt>
      <trkpt lat="45.68122" lon="6.57519">
        <ele>1159</ele>
        <time>2022-06-10T07:23:39Z</time>
      </trkpt>
      <trkpt lat="45.68061" lon="6.57559">
        <ele>1174</ele>
        <time>2022-06-10T07:23:54Z</time>
      </trkpt>
      <trkpt lat="45.67998" lon="6.5755">
        <ele>1175</ele>
        <time>2022-06-10T07:24:09Z</time>
      </trkpt>
      <trkpt lat="45.67994" lon="6.57578">
        <ele>1182</ele>
        <time>2022-06-10T07:24:14Z</time>
      </trkpt>
      <trkpt lat="45.68045" lon="6.57598">
        <ele>1184</ele>
        <time>2022-06-10T07:24:26Z</time>
      </trkpt>
      <trkpt lat="45.68085" lon="6.57646">
        <ele>1188</ele>
        <time>2022-06-10T07:24:38Z</time>
      </trkpt>
      <trkpt lat="45.68097" lon="6.57685">
        <ele>1192</ele>
        <time>2022-06-10T07:24:45Z</time>
      </trkpt>
      <trkpt lat="45.68065" lon="6.57669">
        <ele>1195</ele>
        <time>2022-06-10T07:24:53Z</time>
      </trkpt>
      <trkpt lat="45.68022" lon="6.57676">
        <ele>1201</ele>
        <time>2022-06-10T07:25:03Z</time>
      </trkpt>
      <trkpt lat="45.67983" lon="6.5766">
        <ele>1201</ele>
        <time>2022-06-10T07:25:13Z</time>
      </trkpt>
      <trkpt lat="45.67972" lon="6.57681">
        <ele>1205</ele>
        <time>2022-06-10T07:25:17Z</time>
      </trkpt>
      <trkpt lat="45.68037" lon="6.57756">
        <ele>1214</ele>
        <time>2022-06-10T07:25:36Z</time>
      </trkpt>
      <trkpt lat="45.68075" lon="6.57807">
        <ele>1225</ele>
        <time>2022-06-10T07:25:49Z</time>
      </trkpt>
      <trkpt lat="45.68113" lon="6.57824">
        <ele>1224</ele>
        <time>2022-06-10T07:25:58Z</time>
      </trkpt>
      <trkpt lat="45.68141" lon="6.57827">
        <ele>1219</ele>
        <time>2022-06-10T07:26:05Z</time>
      </trkpt>
      <trkpt lat="45.68125" lon="6.57849">
        <ele>1231</ele>
        <time>2022-06-10T07:26:10Z</time>
      </trkpt>
      <trkpt lat="45.68104" lon="6.57837">
        <ele>1230</ele>
        <time>2022-06-10T07:26:15Z</time>
      </trkpt>
      <trkpt lat="45.68066" lon="6.57837">
        <ele>1235</ele>
        <time>2022-06-10T07:26:24Z</time>
      </trkpt>
      <trkpt lat="45.67971" lon="6.57814">
        <ele>1237</ele>
        <time>2022-06-10T07:26:46Z</time>
      </trkpt>
      <trkpt lat="45.67892" lon="6.5782">
        <ele>1249</ele>
        <time>2022-06-10T07:27:05Z</time>
      </trkpt>
      <trkpt lat="45.67803" lon="6.57808">
        <ele>1253</ele>
        <time>2022-06-10T07:27:26Z</time>
      </trkpt>
      <trkpt lat="45.67676" lon="6.57812">
        <ele>1266</ele>
        <time>2022-06-10T07:27:55Z</time>
      </trkpt>
      <trkpt lat="45.67539" lon="6.57852">
        <ele>1283</ele>
        <time>2022-06-10T07:28:28Z</time>
      </trkpt>
      <trkpt lat="45.67496" lon="6.57881">
        <ele>1290</ele>
        <time>2022-06-10T07:28:39Z</time>
      </trkpt>
      <trkpt lat="45.67426" lon="6.5792">
        <ele>1296</ele>
        <time>2022-06-10T07:28:57Z</time>
      </trkpt>
      <trkpt lat="45.67309" lon="6.57957">
        <ele>1315</ele>
        <time>2022-06-10T07:29:25Z</time>
      </trkpt>
      <trkpt lat="45.67317" lon="6.57968">
        <ele>1317</ele>
        <time>2022-06-10T07:29:27Z</time>
      </trkpt>
      <trkpt lat="45.67369" lon="6.57964">
        <ele>1312</ele>
        <time>2022-06-10T07:29:39Z</time>
      </trkpt>
      <trkpt lat="45.67404" lon="6.57989">
        <ele>1322</ele>
        <time>2022-06-10T07:29:49Z</time>
      </trkpt>
      <trkpt lat="45.67449" lon="6.57998">
        <ele>1327</ele>
        <time>2022-06-10T07:29:59Z</time>
      </trkpt>
      <trkpt lat="45.67495" lon="6.58015">
        <ele>1334</ele>
        <time>2022-06-10T07:30:10Z</time>
      </trkpt>
      <trkpt lat="45.67522" lon="6.58046">
        <ele>1344</ele>
        <time>2022-06-10T07:30:18Z</time>
      </trkpt>
      <trkpt lat="45.67547" lon="6.58025">
        <ele>1339</ele>
        <time>2022-06-10T07:30:25Z</time>
      </trkpt>
      <trkpt lat="45.67573" lon="6.58024">
        <ele>1340</ele>
        <time>2022-06-10T07:30:31Z</time>
      </trkpt>
      <trkpt lat="45.67558" lon="6.58055">
        <ele>1348</ele>
        <time>2022-06-10T07:30:37Z</time>
      </trkpt>
      <trkpt lat="45.67556" lon="6.58077">
        <ele>1354</ele>
        <time>2022-06-10T07:30:41Z</time>
      </trkpt>
      <trkpt lat="45.67587" lon="6.58059">
        <ele>1350</ele>
        <time>2022-06-10T07:30:49Z</time>
      </trkpt>
      <trkpt lat="45.67616" lon="6.58071">
        <ele>1355</ele>
        <time>2022-06-10T07:30:56Z</time>
      </trkpt>
      <trkpt lat="45.67654" lon="6.58085">
        <ele>1360</ele>
        <time>2022-06-10T07:31:05Z</time>
      </trkpt>
      <trkpt lat="45.67701" lon="6.58085">
        <ele>1360</ele>
        <time>2022-06-10T07:31:16Z</time>
      </trkpt>
      <trkpt lat="45.67806" lon="6.58102">
        <ele>1369</ele>
        <time>2022-06-10T07:31:41Z</time>
      </trkpt>
      <trkpt lat="45.67881" lon="6.58132">
        <ele>1383</ele>
        <time>2022-06-10T07:31:59Z</time>
      </trkpt>
      <trkpt lat="45.67919" lon="6.58145">
        <ele>1387</ele>
        <time>2022-06-10T07:32:08Z</time>
      </trkpt>
      <trkpt lat="45.67964" lon="6.58169">
        <ele>1395</ele>
        <time>2022-06-10T07:32:19Z</time>
      </trkpt>
      <trkpt lat="45.68014" lon="6.58195">
        <ele>1401</ele>
        <time>2022-06-10T07:32:32Z</time>
      </trkpt>
      <trkpt lat="45.68053" lon="6.58225">
        <ele>1404</ele>
        <time>2022-06-10T07:32:42Z</time>
      </trkpt>
      <trkpt lat="45.6809" lon="6.58263">
        <ele>1405</ele>
        <time>2022-06-10T07:32:53Z</time>
      </trkpt>
      <trkpt lat="45.68087" lon="6.58276">
        <ele>1408</ele>
        <time>2022-06-10T07:32:55Z</time>
      </trkpt>
      <trkpt lat="45.68049" lon="6.58244">
        <ele>1410</ele>
        <time>2022-06-10T07:33:05Z</time>
      </trkpt>
      <trkpt lat="45.67969" lon="6.58232">
        <ele>1421</ele>
        <time>2022-06-10T07:33:24Z</time>
      </trkpt>
      <trkpt lat="45.67943" lon="6.58239">
        <ele>1429</ele>
        <time>2022-06-10T07:33:30Z</time>
      </trkpt>
      <trkpt lat="45.67904" lon="6.58227">
        <ele>1428</ele>
        <time>2022-06-10T07:33:39Z</time>
      </trkpt>
      <trkpt lat="45.67796" lon="6.58248">
        <ele>1434</ele>
        <time>2022-06-10T07:34:05Z</time>
      </trkpt>
      <trkpt lat="45.67771" lon="6.58285">
        <ele>1444</ele>
        <time>2022-06-10T07:34:13Z</time>
      </trkpt>
      <trkpt lat="45.67734" lon="6.58288">
        <ele>1441</ele>
        <time>2022-06-10T07:34:22Z</time>
      </trkpt>
      <trkpt lat="45.67679" lon="6.5832">
        <ele>1447</ele>
        <time>2022-06-10T07:34:36Z</time>
      </trkpt>
      <trkpt lat="45.67636" lon="6.58349">
        <ele>1451</ele>
        <time>2022-06-10T07:34:47Z</time>
      </trkpt>
      <trkpt lat="45.67617" lon="6.5842">
        <ele>1467</ele>
        <time>2022-06-10T07:34:59Z</time>
      </trkpt>
      <trkpt lat="45.67592" lon="6.58424">
        <ele>1463</ele>
        <time>2022-06-10T07:35:05Z</time>
      </trkpt>
      <trkpt lat="45.6758" lon="6.58438">
        <ele>1465</ele>
        <time>2022-06-10T07:35:09Z</time>
      </trkpt>
      <trkpt lat="45.67608" lon="6.58463">
        <ele>1477</ele>
        <time>2022-06-10T07:35:16Z</time>
      </trkpt>
      <trkpt lat="45.67629" lon="6.58463">
        <ele>1481</ele>
        <time>2022-06-10T07:35:21Z</time>
      </trkpt>
      <trkpt lat="45.67647" lon="6.58419">
        <ele>1473</ele>
        <time>2022-06-10T07:35:30Z</time>
      </trkpt>
      <trkpt lat="45.67744" lon="6.584">
        <ele>1483</ele>
        <time>2022-06-10T07:35:53Z</time>
      </trkpt>
      <trkpt lat="45.67784" lon="6.58418">
        <ele>1492</ele>
        <time>2022-06-10T07:36:02Z</time>
      </trkpt>
      <trkpt lat="45.67833" lon="6.5841">
        <ele>1492</ele>
        <time>2022-06-10T07:36:14Z</time>
      </trkpt>
      <trkpt lat="45.67884" lon="6.58434">
        <ele>1502</ele>
        <time>2022-06-10T07:36:26Z</time>
      </trkpt>
      <trkpt lat="45.67964" lon="6.5844">
        <ele>1501</ele>
        <time>2022-06-10T07:36:45Z</time>
      </trkpt>
      <trkpt lat="45.68017" lon="6.58498">
        <ele>1508</ele>
        <time>2022-06-10T07:37:01Z</time>
      </trkpt>
      <trkpt lat="45.68051" lon="6.58582">
        <ele>1514</ele>
        <time>2022-06-10T07:37:16Z</time>
      </trkpt>
      <trkpt lat="45.68075" lon="6.58619">
        <ele>1516</ele>
        <time>2022-06-10T07:37:25Z</time>
      </trkpt>
      <trkpt lat="45.68042" lon="6.58604">
        <ele>1520</ele>
        <time>2022-06-10T07:37:33Z</time>
      </trkpt>
      <trkpt lat="45.68032" lon="6.58627">
        <ele>1526</ele>
        <time>2022-06-10T07:37:37Z</time>
      </trkpt>
      <trkpt lat="45.68075" lon="6.58682">
        <ele>1526</ele>
        <time>2022-06-10T07:37:51Z</time>
      </trkpt>
      <trkpt lat="45.68026" lon="6.58767">
        <ele>1549</ele>
        <time>2022-06-10T07:38:09Z</time>
      </trkpt>
      <trkpt lat="45.68018" lon="6.58817">
        <ele>1556</ele>
        <time>2022-06-10T07:38:17Z</time>
      </trkpt>
      <trkpt lat="45.67995" lon="6.58864">
        <ele>1571</ele>
        <time>2022-06-10T07:38:26Z</time>
      </trkpt>
      <trkpt lat="45.67982" lon="6.58843">
        <ele>1575</ele>
        <time>2022-06-10T07:38:31Z</time>
      </trkpt>
      <trkpt lat="45.67998" lon="6.5881">
        <ele>1566</ele>
        <time>2022-06-10T07:38:38Z</time>
      </trkpt>
      <trkpt lat="45.67978" lon="6.58753">
        <ele>1564</ele>
        <time>2022-06-10T07:38:48Z</time>
      </trkpt>
      <trkpt lat="45.67888" lon="6.58742">
        <ele>1579</ele>
        <time>2022-06-10T07:39:09Z</time>
      </trkpt>
      <trkpt lat="45.67824" lon="6.58711">
        <ele>1580</ele>
        <time>2022-06-10T07:39:25Z</time>
      </trkpt>
      <trkpt lat="45.67741" lon="6.58729">
        <ele>1586</ele>
        <time>2022-06-10T07:39:44Z</time>
      </trkpt>
      <trkpt lat="45.67696" lon="6.58831">
        <ele>1611</ele>
        <time>2022-06-10T07:40:04Z</time>
      </trkpt>
      <trkpt lat="45.67673" lon="6.58862">
        <ele>1620</ele>
        <time>2022-06-10T07:40:11Z</time>
      </trkpt>
      <trkpt lat="45.67635" lon="6.58867">
        <ele>1614</ele>
        <time>2022-06-10T07:40:20Z</time>
      </trkpt>
      <trkpt lat="45.67601" lon="6.58933">
        <ele>1627</ele>
        <time>2022-06-10T07:40:34Z</time>
      </trkpt>
      <trkpt lat="45.67598" lon="6.58969">
        <ele>1636</ele>
        <time>2022-06-10T07:40:40Z</time>
      </trkpt>
      <trkpt lat="45.6755" lon="6.59071">
        <ele>1655</ele>
        <time>2022-06-10T07:41:00Z</time>
      </trkpt>
      <trkpt lat="45.67557" lon="6.59086">
        <ele>1660</ele>
        <time>2022-06-10T07:41:03Z</time>
      </trkpt>
      <trkpt lat="45.67577" lon="6.59067">
        <ele>1656</ele>
        <time>2022-06-10T07:41:08Z</time>
      </trkpt>
      <trkpt lat="45.67594" lon="6.59027">
        <ele>1649</ele>
        <time>2022-06-10T07:41:16Z</time>
      </trkpt>
      <trkpt lat="45.67625" lon="6.59023">
        <ele>1657</ele>
        <time>2022-06-10T07:41:23Z</time>
      </trkpt>
      <trkpt lat="45.67662" lon="6.5897">
        <ele>1653</ele>
        <time>2022-06-10T07:41:35Z</time>
      </trkpt>
      <trkpt lat="45.67694" lon="6.58975">
        <ele>1657</ele>
        <time>2022-06-10T07:41:43Z</time>
      </trkpt>
      <trkpt lat="45.6771" lon="6.58996">
        <ele>1662</ele>
        <time>2022-06-10T07:41:48Z</time>
      </trkpt>
      <trkpt lat="45.6767" lon="6.59014">
        <ele>1667</ele>
        <time>2022-06-10T07:41:58Z</time>
      </trkpt>
      <trkpt lat="45.6764" lon="6.59078">
        <ele>1675</ele>
        <time>2022-06-10T07:42:10Z</time>
      </trkpt>
      <trkpt lat="45.67687" lon="6.59061">
        <ele>1679</ele>
        <time>2022-06-10T07:42:22Z</time>
      </trkpt>
      <trkpt lat="45.67737" lon="6.59095">
        <ele>1689</ele>
        <time>2022-06-10T07:42:35Z</time>
      </trkpt>
      <trkpt lat="45.67737" lon="6.59127">
        <ele>1694</ele>
        <time>2022-06-10T07:42:40Z</time>
      </trkpt>
      <trkpt lat="45.67762" lon="6.59138">
        <ele>1691</ele>
        <time>2022-06-10T07:42:46Z</time>
      </trkpt>
      <trkpt lat="45.67768" lon="6.59153">
        <ele>1691</ele>
        <time>2022-06-10T07:42:49Z</time>
      </trkpt>
      <trkpt lat="45.67768" lon="6.59184">
        <ele>1696</ele>
        <time>2022-06-10T07:42:54Z</time>
      </trkpt>
      <trkpt lat="45.67771" lon="6.59211">
        <ele>1700</ele>
        <time>2022-06-10T07:42:58Z</time>
      </trkpt>
      <trkpt lat="45.67796" lon="6.59238">
        <ele>1694</ele>
        <time>2022-06-10T07:43:06Z</time>
      </trkpt>
      <trkpt lat="45.67801" lon="6.59251">
        <ele>1694</ele>
        <time>2022-06-10T07:43:08Z</time>
      </trkpt>
      <trkpt lat="45.67796" lon="6.59273">
        <ele>1699</ele>
        <time>2022-06-10T07:43:12Z</time>
      </trkpt>
      <trkpt lat="45.67798" lon="6.59283">
        <ele>1700</ele>
        <time>2022-06-10T07:43:14Z</time>
      </trkpt>
      <trkpt lat="45.67816" lon="6.59282">
        <ele>1692</ele>
        <time>2022-06-10T07:43:18Z</time>
      </trkpt>
      <trkpt lat="45.67827" lon="6.59292">
        <ele>1689</ele>
        <time>2022-06-10T07:43:21Z</time>
      </trkpt>
      <trkpt lat="45.67828" lon="6.59301">
        <ele>1690</ele>
        <time>2022-06-10T07:43:22Z</time>
      </trkpt>
      <trkpt lat="45.67836" lon="6.59311">
        <ele>1689</ele>
        <time>2022-06-10T07:43:25Z</time>
      </trkpt>
      <trkpt lat="45.67844" lon="6.59345">
        <ele>1693</ele>
        <time>2022-06-10T07:43:31Z</time>
      </trkpt>
      <trkpt lat="45.67839" lon="6.59374">
        <ele>1700</ele>
        <time>2022-06-10T07:43:35Z</time>
      </trkpt>
      <trkpt lat="45.67864" lon="6.59455">
        <ele>1711</ele>
        <time>2022-06-10T07:43:50Z</time>
      </trkpt>
      <trkpt lat="45.67903" lon="6.59474">
        <ele>1709</ele>
        <time>2022-06-10T07:44:00Z</time>
      </trkpt>
      <trkpt lat="45.67924" lon="6.59494">
        <ele>1710</ele>
        <time>2022-06-10T07:44:05Z</time>
      </trkpt>
      <trkpt lat="45.67934" lon="6.59515">
        <ele>1713</ele>
        <time>2022-06-10T07:44:10Z</time>
      </trkpt>
      <trkpt lat="45.67951" lon="6.59533">
        <ele>1714</ele>
        <time>2022-06-10T07:44:14Z</time>
      </trkpt>
      <trkpt lat="45.67952" lon="6.59544">
        <ele>1716</ele>
        <time>2022-06-10T07:44:16Z</time>
      </trkpt>
      <trkpt lat="45.67969" lon="6.5958">
        <ele>1722</ele>
        <time>2022-06-10T07:44:23Z</time>
      </trkpt>
      <trkpt lat="45.67993" lon="6.59611">
        <ele>1724</ele>
        <time>2022-06-10T07:44:31Z</time>
      </trkpt>
      <trkpt lat="45.68007" lon="6.59614">
        <ele>1723</ele>
        <time>2022-06-10T07:44:34Z</time>
      </trkpt>
      <trkpt lat="45.68048" lon="6.59637">
        <ele>1728</ele>
        <time>2022-06-10T07:44:45Z</time>
      </trkpt>
      <trkpt lat="45.68063" lon="6.59641">
        <ele>1729</ele>
        <time>2022-06-10T07:44:48Z</time>
      </trkpt>
      <trkpt lat="45.68143" lon="6.59671">
        <ele>1744</ele>
        <time>2022-06-10T07:45:07Z</time>
      </trkpt>
      <trkpt lat="45.68172" lon="6.59669">
        <ele>1746</ele>
        <time>2022-06-10T07:45:14Z</time>
      </trkpt>
      <trkpt lat="45.68185" lon="6.59671">
        <ele>1745</ele>
        <time>2022-06-10T07:45:17Z</time>
      </trkpt>
      <trkpt lat="45.68193" lon="6.5968">
        <ele>1746</ele>
        <time>2022-06-10T07:45:20Z</time>
      </trkpt>
      <trkpt lat="45.68195" lon="6.59695">
        <ele>1748</ele>
        <time>2022-06-10T07:45:22Z</time>
      </trkpt>
      <trkpt lat="45.6822" lon="6.59718">
        <ele>1751</ele>
        <time>2022-06-10T07:45:29Z</time>
      </trkpt>
      <trkpt lat="45.68247" lon="6.59735">
        <ele>1754</ele>
        <time>2022-06-10T07:45:36Z</time>
      </trkpt>
      <trkpt lat="45.68273" lon="6.59733">
        <ele>1754</ele>
        <time>2022-06-10T07:45:42Z</time>
      </trkpt>
      <trkpt lat="45.6831" lon="6.59727">
        <ele>1752</ele>
        <time>2022-06-10T07:45:51Z</time>
      </trkpt>
      <trkpt lat="45.68349" lon="6.59724">
        <ele>1753</ele>
        <time>2022-06-10T07:46:00Z</time>
      </trkpt>
      <trkpt lat="45.68366" lon="6.59713">
        <ele>1753</ele>
        <time>2022-06-10T07:46:04Z</time>
      </trkpt>
      <trkpt lat="45.68377" lon="6.59689">
        <ele>1746</ele>
        <time>2022-06-10T07:46:09Z</time>
      </trkpt>
      <trkpt lat="45.68397" lon="6.59666">
        <ele>1742</ele>
        <time>2022-06-10T07:46:15Z</time>
      </trkpt>
      <trkpt lat="45.68426" lon="6.59658">
        <ele>1744</ele>
        <time>2022-06-10T07:46:22Z</time>
      </trkpt>
      <trkpt lat="45.68454" lon="6.59632">
        <ele>1736</ele>
        <time>2022-06-10T07:46:30Z</time>
      </trkpt>
      <trkpt lat="45.68476" lon="6.59624">
        <ele>1734</ele>
        <time>2022-06-10T07:46:35Z</time>
      </trkpt>
      <trkpt lat="45.68534" lon="6.59655">
        <ele>1748</ele>
        <time>2022-06-10T07:46:49Z</time>
      </trkpt>
      <trkpt lat="45.68564" lon="6.5964">
        <ele>1740</ele>
        <time>2022-06-10T07:46:57Z</time>
      </trkpt>
      <trkpt lat="45.68608" lon="6.59636">
        <ele>1732</ele>
        <time>2022-06-10T07:47:07Z</time>
      </trkpt>
      <trkpt lat="45.68666" lon="6.59694">
        <ele>1739</ele>
        <time>2022-06-10T07:47:24Z</time>
      </trkpt>
      <trkpt lat="45.68697" lon="6.59695">
        <ele>1736</ele>
        <time>2022-06-10T07:47:31Z</time>
      </trkpt>
      <trkpt lat="45.68779" lon="6.59702">
        <ele>1729</ele>
        <time>2022-06-10T07:47:50Z</time>
      </trkpt>
      <trkpt lat="45.68812" lon="6.59735">
        <ele>1736</ele>
        <time>2022-06-10T07:47:59Z</time>
      </trkpt>
      <trkpt lat="45.68837" lon="6.59741">
        <ele>1734</ele>
        <time>2022-06-10T07:48:05Z</time>
      </trkpt>
      <trkpt lat="45.68903" lon="6.59786">
        <ele>1729</ele>
        <time>2022-06-10T07:48:22Z</time>
      </trkpt>
      <trkpt lat="45.68922" lon="6.59818">
        <ele>1732</ele>
        <time>2022-06-10T07:48:29Z</time>
      </trkpt>
      <trkpt lat="45.68942" lon="6.59818">
        <ele>1726</ele>
        <time>2022-06-10T07:48:34Z</time>
      </trkpt>
      <trkpt lat="45.68957" lon="6.59793">
        <ele>1718</ele>
        <time>2022-06-10T07:48:39Z</time>
      </trkpt>
      <trkpt lat="45.68994" lon="6.59798">
        <ele>1710</ele>
        <time>2022-06-10T07:48:48Z</time>
      </trkpt>
      <trkpt lat="45.69024" lon="6.59808">
        <ele>1709</ele>
        <time>2022-06-10T07:48:55Z</time>
      </trkpt>
      <trkpt lat="45.69006" lon="6.59827">
        <ele>1711</ele>
        <time>2022-06-10T07:49:00Z</time>
      </trkpt>
      <trkpt lat="45.68994" lon="6.59849">
        <ele>1714</ele>
        <time>2022-06-10T07:49:05Z</time>
      </trkpt>
      <trkpt lat="45.69" lon="6.59877">
        <ele>1711</ele>
        <time>2022-06-10T07:49:10Z</time>
      </trkpt>
      <trkpt lat="45.69001" lon="6.5992">
        <ele>1710</ele>
        <time>2022-06-10T07:49:17Z</time>
      </trkpt>
      <trkpt lat="45.68978" lon="6.59997">
        <ele>1716</ele>
        <time>2022-06-10T07:49:30Z</time>
      </trkpt>
      <trkpt lat="45.68952" lon="6.60049">
        <ele>1723</ele>
        <time>2022-06-10T07:49:41Z</time>
      </trkpt>
      <trkpt lat="45.68899" lon="6.6009">
        <ele>1736</ele>
        <time>2022-06-10T07:49:55Z</time>
      </trkpt>
      <trkpt lat="45.68876" lon="6.60258">
        <ele>1723</ele>
        <time>2022-06-10T07:50:23Z</time>
      </trkpt>
      <trkpt lat="45.6882" lon="6.60322">
        <ele>1734</ele>
        <time>2022-06-10T07:50:40Z</time>
      </trkpt>
      <trkpt lat="45.68809" lon="6.60369">
        <ele>1728</ele>
        <time>2022-06-10T07:50:48Z</time>
      </trkpt>
      <trkpt lat="45.6875" lon="6.60404">
        <ele>1737</ele>
        <time>2022-06-10T07:51:03Z</time>
      </trkpt>
      <trkpt lat="45.68725" lon="6.60542">
        <ele>1731</ele>
        <time>2022-06-10T07:51:26Z</time>
      </trkpt>
      <trkpt lat="45.68653" lon="6.60601">
        <ele>1739</ele>
        <time>2022-06-10T07:51:45Z</time>
      </trkpt>
      <trkpt lat="45.68676" lon="6.60545">
        <ele>1745</ele>
        <time>2022-06-10T07:51:56Z</time>
      </trkpt>
      <trkpt lat="45.68628" lon="6.60566">
        <ele>1750</ele>
        <time>2022-06-10T07:52:07Z</time>
      </trkpt>
      <trkpt lat="45.68581" lon="6.60562">
        <ele>1760</ele>
        <time>2022-06-10T07:52:18Z</time>
      </trkpt>
      <trkpt lat="45.68495" lon="6.60638">
        <ele>1761</ele>
        <time>2022-06-10T07:52:42Z</time>
      </trkpt>
      <trkpt lat="45.68462" lon="6.60627">
        <ele>1767</ele>
        <time>2022-06-10T07:52:50Z</time>
      </trkpt>
      <trkpt lat="45.68434" lon="6.60636">
        <ele>1771</ele>
        <time>2022-06-10T07:52:57Z</time>
      </trkpt>
      <trkpt lat="45.68388" lon="6.60635">
        <ele>1780</ele>
        <time>2022-06-10T07:53:07Z</time>
      </trkpt>
      <trkpt lat="45.68432" lon="6.60601">
        <ele>1774</ele>
        <time>2022-06-10T07:53:19Z</time>
      </trkpt>
      <trkpt lat="45.68467" lon="6.60527">
        <ele>1783</ele>
        <time>2022-06-10T07:53:34Z</time>
      </trkpt>
      <trkpt lat="45.68475" lon="6.60483">
        <ele>1792</ele>
        <time>2022-06-10T07:53:41Z</time>
      </trkpt>
      <trkpt lat="45.68508" lon="6.60446">
        <ele>1795</ele>
        <time>2022-06-10T07:53:51Z</time>
      </trkpt>
      <trkpt lat="45.68555" lon="6.60308">
        <ele>1801</ele>
        <time>2022-06-10T07:54:16Z</time>
      </trkpt>
      <trkpt lat="45.68594" lon="6.60261">
        <ele>1805</ele>
        <time>2022-06-10T07:54:28Z</time>
      </trkpt>
      <trkpt lat="45.68542" lon="6.60267">
        <ele>1816</ele>
        <time>2022-06-10T07:54:40Z</time>
      </trkpt>
      <trkpt lat="45.68505" lon="6.60316">
        <ele>1810</ele>
        <time>2022-06-10T07:54:52Z</time>
      </trkpt>
      <trkpt lat="45.68362" lon="6.60278">
        <ele>1841</ele>
        <time>2022-06-10T07:55:26Z</time>
      </trkpt>
      <trkpt lat="45.68327" lon="6.60292">
        <ele>1847</ele>
        <time>2022-06-10T07:55:34Z</time>
      </trkpt>
      <trkpt lat="45.6831" lon="6.60337">
        <ele>1847</ele>
        <time>2022-06-10T07:55:43Z</time>
      </trkpt>
      <trkpt lat="45.6831" lon="6.60392">
        <ele>1844</ele>
        <time>2022-06-10T07:55:52Z</time>
      </trkpt>
      <trkpt lat="45.68274" lon="6.60409">
        <ele>1854</ele>
        <time>2022-06-10T07:56:00Z</time>
      </trkpt>
      <trkpt lat="45.68236" lon="6.60498">
        <ele>1855</ele>
        <time>2022-06-10T07:56:17Z</time>
      </trkpt>
      <trkpt lat="45.68221" lon="6.60548">
        <ele>1854</ele>
        <time>2022-06-10T07:56:26Z</time>
      </trkpt>
      <trkpt lat="45.68212" lon="6.60481">
        <ele>1865</ele>
        <time>2022-06-10T07:56:37Z</time>
      </trkpt>
      <trkpt lat="45.68228" lon="6.60418">
        <ele>1867</ele>
        <time>2022-06-10T07:56:48Z</time>
      </trkpt>
      <trkpt lat="45.68158" lon="6.6055">
        <ele>1873</ele>
        <time>2022-06-10T07:57:15Z</time>
      </trkpt>
      <trkpt lat="45.68135" lon="6.60603">
        <ele>1867</ele>
        <time>2022-06-10T07:57:26Z</time>
      </trkpt>
      <trkpt lat="45.68036" lon="6.60533">
        <ele>1889</ele>
        <time>2022-06-10T07:57:51Z</time>
      </trkpt>
      <trkpt lat="45.68024" lon="6.60463">
        <ele>1901</ele>
        <time>2022-06-10T07:58:03Z</time>
      </trkpt>
      <trkpt lat="45.67979" lon="6.60457">
        <ele>1901</ele>
        <time>2022-06-10T07:58:14Z</time>
      </trkpt>
      <trkpt lat="45.67965" lon="6.60425">
        <ele>1907</ele>
        <time>2022-06-10T07:58:20Z</time>
      </trkpt>
      <trkpt lat="45.67918" lon="6.6041">
        <ele>1911</ele>
        <time>2022-06-10T07:58:31Z</time>
      </trkpt>
      <trkpt lat="45.67878" lon="6.60409">
        <ele>1913</ele>
        <time>2022-06-10T07:58:40Z</time>
      </trkpt>
      <trkpt lat="45.67852" lon="6.60378">
        <ele>1923</ele>
        <time>2022-06-10T07:58:48Z</time>
      </trkpt>
      <trkpt lat="45.67786" lon="6.60419">
        <ele>1924</ele>
        <time>2022-06-10T07:59:05Z</time>
      </trkpt>
      <trkpt lat="45.67759" lon="6.60427">
        <ele>1928</ele>
        <time>2022-06-10T07:59:12Z</time>
      </trkpt>
      <trkpt lat="45.67734" lon="6.60436">
        <ele>1931</ele>
        <time>2022-06-10T07:59:18Z</time>
      </trkpt>
      <trkpt lat="45.67679" lon="6.60471">
        <ele>1934</ele>
        <time>2022-06-10T07:59:32Z</time>
      </trkpt>
      <trkpt lat="45.6761" lon="6.60501">
        <ele>1940</ele>
        <time>2022-06-10T07:59:49Z</time>
      </trkpt>
      <trkpt lat="45.67516" lon="6.60533">
        <ele>1952</ele>
        <time>2022-06-10T08:00:11Z</time>
      </trkpt>
      <trkpt lat="45.67471" lon="6.60542">
        <ele>1956</ele>
        <time>2022-06-10T08:00:22Z</time>
      </trkpt>
      <trkpt lat="45.67425" lon="6.6058">
        <ele>1950</ele>
        <time>2022-06-10T08:00:34Z</time>
      </trkpt>
      <trkpt lat="45.67382" lon="6.60511">
        <ele>1963</ele>
        <time>2022-06-10T08:00:49Z</time>
      </trkpt>
      <trkpt lat="45.67318" lon="6.60345">
        <ele>1982</ele>
        <time>2022-06-10T08:01:20Z</time>
      </trkpt>
      <trkpt lat="45.67279" lon="6.60294">
        <ele>1986</ele>
        <time>2022-06-10T08:01:32Z</time>
      </trkpt>
      <trkpt lat="45.67215" lon="6.60228">
        <ele>1994</ele>
        <time>2022-06-10T08:01:51Z</time>
      </trkpt>
      <trkpt lat="45.6715" lon="6.60161">
        <ele>2000</ele>
        <time>2022-06-10T08:02:10Z</time>
      </trkpt>
      <trkpt lat="45.67125" lon="6.60082">
        <ele>2008</ele>
        <time>2022-06-10T08:02:24Z</time>
      </trkpt>
      <trkpt lat="45.6712" lon="6.60034">
        <ele>2016</ele>
        <time>2022-06-10T08:02:32Z</time>
      </trkpt>
      <trkpt lat="45.67063" lon="6.59946">
        <ele>2022</ele>
        <time>2022-06-10T08:02:51Z</time>
      </trkpt>
      <trkpt lat="45.6703" lon="6.59885">
        <ele>2032</ele>
        <time>2022-06-10T08:03:04Z</time>
      </trkpt>
      <trkpt lat="45.67037" lon="6.59877">
        <ele>2034</ele>
        <time>2022-06-10T08:03:06Z</time>
      </trkpt>
      <trkpt lat="45.6705" lon="6.5989">
        <ele>2033</ele>
        <time>2022-06-10T08:03:10Z</time>
      </trkpt>
      <trkpt lat="45.67077" lon="6.59931">
        <ele>2027</ele>
        <time>2022-06-10T08:03:19Z</time>
      </trkpt>
      <trkpt lat="45.67086" lon="6.59924">
        <ele>2030</ele>
        <time>2022-06-10T08:03:21Z</time>
      </trkpt>
      <trkpt lat="45.67068" lon="6.59899">
        <ele>2033</ele>
        <time>2022-06-10T08:03:27Z</time>
      </trkpt>
      <trkpt lat="45.67055" lon="6.59852">
        <ele>2041</ele>
        <time>2022-06-10T08:03:35Z</time>
      </trkpt>
      <trkpt lat="45.66972" lon="6.59818">
        <ele>2041</ele>
        <time>2022-06-10T08:03:56Z</time>
      </trkpt>
      <trkpt lat="45.66947" lon="6.59796">
        <ele>2043</ele>
        <time>2022-06-10T08:04:02Z</time>
      </trkpt>
      <trkpt lat="45.66929" lon="6.59802">
        <ele>2043</ele>
        <time>2022-06-10T08:04:07Z</time>
      </trkpt>
      <trkpt lat="45.66904" lon="6.59841">
        <ele>2043</ele>
        <time>2022-06-10T08:04:15Z</time>
      </trkpt>
      <trkpt lat="45.66813" lon="6.59886">
        <ele>2051</ele>
        <time>2022-06-10T08:04:38Z</time>
      </trkpt>
      <trkpt lat="45.6678" lon="6.59874">
        <ele>2056</ele>
        <time>2022-06-10T08:04:46Z</time>
      </trkpt>
      <trkpt lat="45.66751" lon="6.59842">
        <ele>2068</ele>
        <time>2022-06-10T08:04:54Z</time>
      </trkpt>
      <trkpt lat="45.66635" lon="6.59771">
        <ele>2060</ele>
        <time>2022-06-10T08:05:24Z</time>
      </trkpt>
      <trkpt lat="45.6661" lon="6.59697">
        <ele>2066</ele>
        <time>2022-06-10T08:05:37Z</time>
      </trkpt>
      <trkpt lat="45.66541" lon="6.59603">
        <ele>2063</ele>
        <time>2022-06-10T08:05:59Z</time>
      </trkpt>
      <trkpt lat="45.66511" lon="6.59579">
        <ele>2062</ele>
        <time>2022-06-10T08:06:07Z</time>
      </trkpt>
      <trkpt lat="45.66497" lon="6.59563">
        <ele>2057</ele>
        <time>2022-06-10T08:06:12Z</time>
      </trkpt>
      <trkpt lat="45.66436" lon="6.59544">
        <ele>2047</ele>
        <time>2022-06-10T08:06:26Z</time>
      </trkpt>
      <trkpt lat="45.66406" lon="6.59531">
        <ele>2046</ele>
        <time>2022-06-10T08:06:34Z</time>
      </trkpt>
      <trkpt lat="45.66309" lon="6.59516">
        <ele>2051</ele>
        <time>2022-06-10T08:06:56Z</time>
      </trkpt>
      <trkpt lat="45.66273" lon="6.5946">
        <ele>2051</ele>
        <time>2022-06-10T08:07:09Z</time>
      </trkpt>
      <trkpt lat="45.6623" lon="6.59406">
        <ele>2057</ele>
        <time>2022-06-10T08:07:22Z</time>
      </trkpt>
      <trkpt lat="45.66226" lon="6.59431">
        <ele>2059</ele>
        <time>2022-06-10T08:07:26Z</time>
      </trkpt>
      <trkpt lat="45.66156" lon="6.59389">
        <ele>2069</ele>
        <time>2022-06-10T08:07:44Z</time>
      </trkpt>
      <trkpt lat="45.66026" lon="6.59398">
        <ele>2079</ele>
        <time>2022-06-10T08:08:14Z</time>
      </trkpt>
      <trkpt lat="45.6591" lon="6.59352">
        <ele>2080</ele>
        <time>2022-06-10T08:08:43Z</time>
      </trkpt>
      <trkpt lat="45.65875" lon="6.59358">
        <ele>2089</ele>
        <time>2022-06-10T08:08:51Z</time>
      </trkpt>
      <trkpt lat="45.65823" lon="6.59344">
        <ele>2103</ele>
        <time>2022-06-10T08:09:03Z</time>
      </trkpt>
      <trkpt lat="45.65776" lon="6.59309">
        <ele>2106</ele>
        <time>2022-06-10T08:09:15Z</time>
      </trkpt>
      <trkpt lat="45.65678" lon="6.59328">
        <ele>2131</ele>
        <time>2022-06-10T08:09:39Z</time>
      </trkpt>
      <trkpt lat="45.6562" lon="6.59326">
        <ele>2134</ele>
        <time>2022-06-10T08:09:52Z</time>
      </trkpt>
      <trkpt lat="45.65588" lon="6.59357">
        <ele>2138</ele>
        <time>2022-06-10T08:10:01Z</time>
      </trkpt>
      <trkpt lat="45.65563" lon="6.59375">
        <ele>2140</ele>
        <time>2022-06-10T08:10:08Z</time>
      </trkpt>
      <trkpt lat="45.65493" lon="6.59423">
        <ele>2150</ele>
        <time>2022-06-10T08:10:26Z</time>
      </trkpt>
      <trkpt lat="45.65483" lon="6.59449">
        <ele>2147</ele>
        <time>2022-06-10T08:10:31Z</time>
      </trkpt>
      <trkpt lat="45.65451" lon="6.59463">
        <ele>2147</ele>
        <time>2022-06-10T08:10:38Z</time>
      </trkpt>
      <trkpt lat="45.65435" lon="6.59485">
        <ele>2149</ele>
        <time>2022-06-10T08:10:44Z</time>
      </trkpt>
      <trkpt lat="45.65418" lon="6.5949">
        <ele>2152</ele>
        <time>2022-06-10T08:10:48Z</time>
      </trkpt>
      <trkpt lat="45.65385" lon="6.59526">
        <ele>2143</ele>
        <time>2022-06-10T08:10:57Z</time>
      </trkpt>
      <trkpt lat="45.65321" lon="6.59573">
        <ele>2139</ele>
        <time>2022-06-10T08:11:14Z</time>
      </trkpt>
      <trkpt lat="45.65257" lon="6.59651">
        <ele>2154</ele>
        <time>2022-06-10T08:11:34Z</time>
      </trkpt>
      <trkpt lat="45.65223" lon="6.59661">
        <ele>2155</ele>
        <time>2022-06-10T08:11:42Z</time>
      </trkpt>
      <trkpt lat="45.6513" lon="6.59753">
        <ele>2153</ele>
        <time>2022-06-10T08:12:08Z</time>
      </trkpt>
      <trkpt lat="45.65054" lon="6.59803">
        <ele>2142</ele>
        <time>2022-06-10T08:12:28Z</time>
      </trkpt>
      <trkpt lat="45.65032" lon="6.59876">
        <ele>2146</ele>
        <time>2022-06-10T08:12:41Z</time>
      </trkpt>
      <trkpt lat="45.64939" lon="6.60042">
        <ele>2168</ele>
        <time>2022-06-10T08:13:16Z</time>
      </trkpt>
      <trkpt lat="45.64878" lon="6.60076">
        <ele>2161</ele>
        <time>2022-06-10T08:13:31Z</time>
      </trkpt>
      <trkpt lat="45.64794" lon="6.60059">
        <ele>2135</ele>
        <time>2022-06-10T08:13:51Z</time>
      </trkpt>
      <trkpt lat="45.647" lon="6.6009">
        <ele>2120</ele>
        <time>2022-06-10T08:14:13Z</time>
      </trkpt>
      <trkpt lat="45.64661" lon="6.60096">
        <ele>2115</ele>
        <time>2022-06-10T08:14:22Z</time>
      </trkpt>
      <trkpt lat="45.64555" lon="6.6001">
        <ele>2090</ele>
        <time>2022-06-10T08:14:51Z</time>
      </trkpt>
      <trkpt lat="45.64514" lon="6.6001">
        <ele>2089</ele>
        <time>2022-06-10T08:15:00Z</time>
      </trkpt>
      <trkpt lat="45.64505" lon="6.59978">
        <ele>2082</ele>
        <time>2022-06-10T08:15:06Z</time>
      </trkpt>
      <trkpt lat="45.64478" lon="6.59762">
        <ele>2060</ele>
        <time>2022-06-10T08:15:42Z</time>
      </trkpt>
      <trkpt lat="45.64474" lon="6.59654">
        <ele>2050</ele>
        <time>2022-06-10T08:16:00Z</time>
      </trkpt>
      <trkpt lat="45.64451" lon="6.59627">
        <ele>2047</ele>
        <time>2022-06-10T08:16:06Z</time>
      </trkpt>
      <trkpt lat="45.64405" lon="6.59612">
        <ele>2043</ele>
        <time>2022-06-10T08:16:17Z</time>
      </trkpt>
      <trkpt lat="45.6435" lon="6.59648">
        <ele>2035</ele>
        <time>2022-06-10T08:16:32Z</time>
      </trkpt>
      <trkpt lat="45.64373" lon="6.59572">
        <ele>2025</ele>
        <time>2022-06-10T08:16:45Z</time>
      </trkpt>
      <trkpt lat="45.64403" lon="6.59528">
        <ele>2022</ele>
        <time>2022-06-10T08:16:55Z</time>
      </trkpt>
      <trkpt lat="45.64423" lon="6.59471">
        <ele>2009</ele>
        <time>2022-06-10T08:17:06Z</time>
      </trkpt>
      <trkpt lat="45.64466" lon="6.59451">
        <ele>2002</ele>
        <time>2022-06-10T08:17:16Z</time>
      </trkpt>
      <trkpt lat="45.64435" lon="6.59439">
        <ele>1999</ele>
        <time>2022-06-10T08:17:24Z</time>
      </trkpt>
      <trkpt lat="45.64394" lon="6.59454">
        <ele>1997</ele>
        <time>2022-06-10T08:17:34Z</time>
      </trkpt>
      <trkpt lat="45.64357" lon="6.59509">
        <ele>2003</ele>
        <time>2022-06-10T08:17:46Z</time>
      </trkpt>
      <trkpt lat="45.64308" lon="6.5951">
        <ele>1990</ele>
        <time>2022-06-10T08:17:57Z</time>
      </trkpt>
      <trkpt lat="45.64214" lon="6.59548">
        <ele>1975</ele>
        <time>2022-06-10T08:18:20Z</time>
      </trkpt>
      <trkpt lat="45.64218" lon="6.59583">
        <ele>1984</ele>
        <time>2022-06-10T08:18:26Z</time>
      </trkpt>
      <trkpt lat="45.6419" lon="6.59592">
        <ele>1979</ele>
        <time>2022-06-10T08:18:33Z</time>
      </trkpt>
      <trkpt lat="45.64177" lon="6.59623">
        <ele>1982</ele>
        <time>2022-06-10T08:18:39Z</time>
      </trkpt>
      <trkpt lat="45.64011" lon="6.59613">
        <ele>1948</ele>
        <time>2022-06-10T08:19:17Z</time>
      </trkpt>
      <trkpt lat="45.63999" lon="6.59735">
        <ele>1964</ele>
        <time>2022-06-10T08:19:38Z</time>
      </trkpt>
      <trkpt lat="45.63959" lon="6.59691">
        <ele>1952</ele>
        <time>2022-06-10T08:19:49Z</time>
      </trkpt>
      <trkpt lat="45.63946" lon="6.59753">
        <ele>1961</ele>
        <time>2022-06-10T08:20:00Z</time>
      </trkpt>
      <trkpt lat="45.63923" lon="6.59783">
        <ele>1962</ele>
        <time>2022-06-10T08:20:07Z</time>
      </trkpt>
      <trkpt lat="45.63897" lon="6.59793">
        <ele>1958</ele>
        <time>2022-06-10T08:20:13Z</time>
      </trkpt>
      <trkpt lat="45.63855" lon="6.5984">
        <ele>1955</ele>
        <time>2022-06-10T08:20:26Z</time>
      </trkpt>
      <trkpt lat="45.6385" lon="6.5987">
        <ele>1958</ele>
        <time>2022-06-10T08:20:31Z</time>
      </trkpt>
      <trkpt lat="45.63819" lon="6.59885">
        <ele>1956</ele>
        <time>2022-06-10T08:20:39Z</time>
      </trkpt>
      <trkpt lat="45.63833" lon="6.59902">
        <ele>1958</ele>
        <time>2022-06-10T08:20:43Z</time>
      </trkpt>
      <trkpt lat="45.63818" lon="6.59921">
        <ele>1962</ele>
        <time>2022-06-10T08:20:48Z</time>
      </trkpt>
      <trkpt lat="45.63682" lon="6.59928">
        <ele>1971</ele>
        <time>2022-06-10T08:21:19Z</time>
      </trkpt>
      <trkpt lat="45.63599" lon="6.60003">
        <ele>1983</ele>
        <time>2022-06-10T08:21:42Z</time>
      </trkpt>
      <trkpt lat="45.63561" lon="6.60072">
        <ele>1986</ele>
        <time>2022-06-10T08:21:57Z</time>
      </trkpt>
      <trkpt lat="45.63569" lon="6.60122">
        <ele>1996</ele>
        <time>2022-06-10T08:22:05Z</time>
      </trkpt>
      <trkpt lat="45.63544" lon="6.60168">
        <ele>1999</ele>
        <time>2022-06-10T08:22:14Z</time>
      </trkpt>
      <trkpt lat="45.63506" lon="6.60235">
        <ele>2002</ele>
        <time>2022-06-10T08:22:29Z</time>
      </trkpt>
      <trkpt lat="45.63499" lon="6.60276">
        <ele>2005</ele>
        <time>2022-06-10T08:22:35Z</time>
      </trkpt>
      <trkpt lat="45.63499" lon="6.60351">
        <ele>2013</ele>
        <time>2022-06-10T08:22:48Z</time>
      </trkpt>
      <trkpt lat="45.63509" lon="6.60367">
        <ele>2015</ele>
        <time>2022-06-10T08:22:51Z</time>
      </trkpt>
      <trkpt lat="45.63492" lon="6.60403">
        <ele>2018</ele>
        <time>2022-06-10T08:22:58Z</time>
      </trkpt>
      <trkpt lat="45.63458" lon="6.6037">
        <ele>2017</ele>
        <time>2022-06-10T08:23:08Z</time>
      </trkpt>
      <trkpt lat="45.63447" lon="6.60333">
        <ele>2013</ele>
        <time>2022-06-10T08:23:14Z</time>
      </trkpt>
      <trkpt lat="45.63409" lon="6.60296">
        <ele>2009</ele>
        <time>2022-06-10T08:23:25Z</time>
      </trkpt>
      <trkpt lat="45.63359" lon="6.60276">
        <ele>2010</ele>
        <time>2022-06-10T08:23:37Z</time>
      </trkpt>
      <trkpt lat="45.63329" lon="6.60288">
        <ele>2015</ele>
        <time>2022-06-10T08:23:45Z</time>
      </trkpt>
      <trkpt lat="45.633" lon="6.60273">
        <ele>2015</ele>
        <time>2022-06-10T08:23:52Z</time>
      </trkpt>
      <trkpt lat="45.63291" lon="6.60239">
        <ele>2008</ele>
        <time>2022-06-10T08:23:58Z</time>
      </trkpt>
      <trkpt lat="45.63198" lon="6.60198">
        <ele>2004</ele>
        <time>2022-06-10T08:24:20Z</time>
      </trkpt>
      <trkpt lat="45.6314" lon="6.60212">
        <ele>2006</ele>
        <time>2022-06-10T08:24:34Z</time>
      </trkpt>
      <trkpt lat="45.63108" lon="6.60196">
        <ele>1998</ele>
        <time>2022-06-10T08:24:42Z</time>
      </trkpt>
      <trkpt lat="45.63048" lon="6.6022">
        <ele>1994</ele>
        <time>2022-06-10T08:24:57Z</time>
      </trkpt>
      <trkpt lat="45.63023" lon="6.60201">
        <ele>1986</ele>
        <time>2022-06-10T08:25:03Z</time>
      </trkpt>
      <trkpt lat="45.62997" lon="6.60203">
        <ele>1981</ele>
        <time>2022-06-10T08:25:09Z</time>
      </trkpt>
      <trkpt lat="45.63001" lon="6.60239">
        <ele>1989</ele>
        <time>2022-06-10T08:25:15Z</time>
      </trkpt>
      <trkpt lat="45.62982" lon="6.60273">
        <ele>1991</ele>
        <time>2022-06-10T08:25:22Z</time>
      </trkpt>
      <trkpt lat="45.62952" lon="6.60287">
        <ele>1983</ele>
        <time>2022-06-10T08:25:30Z</time>
      </trkpt>
      <trkpt lat="45.62912" lon="6.6029">
        <ele>1970</ele>
        <time>2022-06-10T08:25:39Z</time>
      </trkpt>
      <trkpt lat="45.62887" lon="6.60315">
        <ele>1971</ele>
        <time>2022-06-10T08:25:46Z</time>
      </trkpt>
      <trkpt lat="45.62863" lon="6.6031">
        <ele>1963</ele>
        <time>2022-06-10T08:25:52Z</time>
      </trkpt>
      <trkpt lat="45.6282" lon="6.60331">
        <ele>1961</ele>
        <time>2022-06-10T08:26:03Z</time>
      </trkpt>
      <trkpt lat="45.6279" lon="6.60344">
        <ele>1959</ele>
        <time>2022-06-10T08:26:10Z</time>
      </trkpt>
      <trkpt lat="45.62772" lon="6.60347">
        <ele>1956</ele>
        <time>2022-06-10T08:26:14Z</time>
      </trkpt>
      <trkpt lat="45.62712" lon="6.60395">
        <ele>1962</ele>
        <time>2022-06-10T08:26:30Z</time>
      </trkpt>
      <trkpt lat="45.62682" lon="6.60405">
        <ele>1963</ele>
        <time>2022-06-10T08:26:37Z</time>
      </trkpt>
      <trkpt lat="45.62622" lon="6.60473">
        <ele>1981</ele>
        <time>2022-06-10T08:26:55Z</time>
      </trkpt>
      <trkpt lat="45.62579" lon="6.60477">
        <ele>1981</ele>
        <time>2022-06-10T08:27:05Z</time>
      </trkpt>
      <trkpt lat="45.62549" lon="6.60484">
        <ele>1984</ele>
        <time>2022-06-10T08:27:12Z</time>
      </trkpt>
      <trkpt lat="45.62514" lon="6.60499">
        <ele>1988</ele>
        <time>2022-06-10T08:27:21Z</time>
      </trkpt>
      <trkpt lat="45.62479" lon="6.60493">
        <ele>1991</ele>
        <time>2022-06-10T08:27:29Z</time>
      </trkpt>
      <trkpt lat="45.62435" lon="6.60499">
        <ele>2000</ele>
        <time>2022-06-10T08:27:39Z</time>
      </trkpt>
      <trkpt lat="45.624" lon="6.60476">
        <ele>2006</ele>
        <time>2022-06-10T08:27:48Z</time>
      </trkpt>
      <trkpt lat="45.62389" lon="6.60434">
        <ele>2002</ele>
        <time>2022-06-10T08:27:56Z</time>
      </trkpt>
      <trkpt lat="45.62369" lon="6.60387">
        <ele>2004</ele>
        <time>2022-06-10T08:28:05Z</time>
      </trkpt>
      <trkpt lat="45.62342" lon="6.60339">
        <ele>2007</ele>
        <time>2022-06-10T08:28:15Z</time>
      </trkpt>
      <trkpt lat="45.62308" lon="6.60297">
        <ele>2015</ele>
        <time>2022-06-10T08:28:25Z</time>
      </trkpt>
      <trkpt lat="45.62291" lon="6.60209">
        <ele>2006</ele>
        <time>2022-06-10T08:28:40Z</time>
      </trkpt>
      <trkpt lat="45.62274" lon="6.60175">
        <ele>2005</ele>
        <time>2022-06-10T08:28:47Z</time>
      </trkpt>
      <trkpt lat="45.62247" lon="6.60173">
        <ele>2014</ele>
        <time>2022-06-10T08:28:53Z</time>
      </trkpt>
      <trkpt lat="45.6218" lon="6.60243">
        <ele>2040</ele>
        <time>2022-06-10T08:29:13Z</time>
      </trkpt>
      <trkpt lat="45.6216" lon="6.60247">
        <ele>2045</ele>
        <time>2022-06-10T08:29:17Z</time>
      </trkpt>
      <trkpt lat="45.62111" lon="6.60226">
        <ele>2051</ele>
        <time>2022-06-10T08:29:29Z</time>
      </trkpt>
      <trkpt lat="45.62079" lon="6.6019">
        <ele>2049</ele>
        <time>2022-06-10T08:29:39Z</time>
      </trkpt>
      <trkpt lat="45.62071" lon="6.60158">
        <ele>2043</ele>
        <time>2022-06-10T08:29:45Z</time>
      </trkpt>
      <trkpt lat="45.62019" lon="6.6011">
        <ele>2052</ele>
        <time>2022-06-10T08:29:59Z</time>
      </trkpt>
      <trkpt lat="45.61981" lon="6.60096">
        <ele>2067</ele>
        <time>2022-06-10T08:30:08Z</time>
      </trkpt>
      <trkpt lat="45.61963" lon="6.60038">
        <ele>2063</ele>
        <time>2022-06-10T08:30:18Z</time>
      </trkpt>
      <trkpt lat="45.61974" lon="6.59966">
        <ele>2044</ele>
        <time>2022-06-10T08:30:31Z</time>
      </trkpt>
      <trkpt lat="45.61957" lon="6.59956">
        <ele>2048</ele>
        <time>2022-06-10T08:30:35Z</time>
      </trkpt>
      <trkpt lat="45.61895" lon="6.59999">
        <ele>2070</ele>
        <time>2022-06-10T08:30:51Z</time>
      </trkpt>
      <trkpt lat="45.61861" lon="6.60015">
        <ele>2075</ele>
        <time>2022-06-10T08:30:59Z</time>
      </trkpt>
      <trkpt lat="45.61805" lon="6.60118">
        <ele>2094</ele>
        <time>2022-06-10T08:31:21Z</time>
      </trkpt>
      <trkpt lat="45.61775" lon="6.60182">
        <ele>2099</ele>
        <time>2022-06-10T08:31:33Z</time>
      </trkpt>
      <trkpt lat="45.61714" lon="6.60272">
        <ele>2102</ele>
        <time>2022-06-10T08:31:54Z</time>
      </trkpt>
      <trkpt lat="45.61742" lon="6.60324">
        <ele>2107</ele>
        <time>2022-06-10T08:32:04Z</time>
      </trkpt>
      <trkpt lat="45.61741" lon="6.60374">
        <ele>2104</ele>
        <time>2022-06-10T08:32:13Z</time>
      </trkpt>
      <trkpt lat="45.61771" lon="6.6043">
        <ele>2104</ele>
        <time>2022-06-10T08:32:24Z</time>
      </trkpt>
      <trkpt lat="45.61776" lon="6.60492">
        <ele>2102</ele>
        <time>2022-06-10T08:32:34Z</time>
      </trkpt>
      <trkpt lat="45.61785" lon="6.60521">
        <ele>2102</ele>
        <time>2022-06-10T08:32:39Z</time>
      </trkpt>
      <trkpt lat="45.61823" lon="6.60542">
        <ele>2102</ele>
        <time>2022-06-10T08:32:49Z</time>
      </trkpt>
      <trkpt lat="45.61857" lon="6.60611">
        <ele>2103</ele>
        <time>2022-06-10T08:33:03Z</time>
      </trkpt>
      <trkpt lat="45.61861" lon="6.60644">
        <ele>2100</ele>
        <time>2022-06-10T08:33:08Z</time>
      </trkpt>
      <trkpt lat="45.61891" lon="6.6073">
        <ele>2094</ele>
        <time>2022-06-10T08:33:24Z</time>
      </trkpt>
      <trkpt lat="45.61878" lon="6.60725">
        <ele>2092</ele>
        <time>2022-06-10T08:33:27Z</time>
      </trkpt>
      <trkpt lat="45.61839" lon="6.60684">
        <ele>2089</ele>
        <time>2022-06-10T08:33:38Z</time>
      </trkpt>
      <trkpt lat="45.6182" lon="6.60694">
        <ele>2087</ele>
        <time>2022-06-10T08:33:43Z</time>
      </trkpt>
      <trkpt lat="45.618" lon="6.60728">
        <ele>2083</ele>
        <time>2022-06-10T08:33:50Z</time>
      </trkpt>
      <trkpt lat="45.61757" lon="6.60781">
        <ele>2076</ele>
        <time>2022-06-10T08:34:04Z</time>
      </trkpt>
      <trkpt lat="45.61784" lon="6.60797">
        <ele>2071</ele>
        <time>2022-06-10T08:34:10Z</time>
      </trkpt>
      <trkpt lat="45.61799" lon="6.60812">
        <ele>2067</ele>
        <time>2022-06-10T08:34:15Z</time>
      </trkpt>
    </trkseg>
  </trk>
</gpx>